sensor_id;sensor_type;location;lat;lon;timestamp;P1;durP1;ratioP1;P2;durP2;ratioP2
65717;SDS011;52445;52.466;-1.016;2022-09-09T00:01:49;38.08;;;2.97;;
65717;SDS011;52445;52.466;-1.016;2022-09-09T00:12:15;45.33;;;3.08;;
65717;SDS011;52445;52.466;-1.016;2022-09-09T00:17:56;41.50;;;2.75;;
65717;SDS011;52445;52.466;-1.016;2022-09-09T00:20:36;28.20;;;2.50;;
65717;SDS011;52445;52.466;-1.016;2022-09-09T00:23:14;34.92;;;3.88;;
65717;SDS011;52445;52.466;-1.016;2022-09-09T00:25:59;10.57;;;3.50;;
65717;SDS011;52445;52.466;-1.016;2022-09-09T00:28:33;9.73;;;2.55;;
65717;SDS011;52445;52.466;-1.016;2022-09-09T00:31:11;6.78;;;2.45;;
65717;SDS011;52445;52.466;-1.016;2022-09-09T00:33:40;5.90;;;2.88;;
65717;SDS011;52445;52.466;-1.016;2022-09-09T00:36:12;6.50;;;2.58;;
65717;SDS011;52445;52.466;-1.016;2022-09-09T00:38:43;9.10;;;2.80;;
65717;SDS011;52445;52.466;-1.016;2022-09-09T00:44:31;7.82;;;3.28;;
65717;SDS011;52445;52.466;-1.016;2022-09-09T00:52:23;8.43;;;3.20;;
65717;SDS011;52445;52.466;-1.016;2022-09-09T00:55:03;8.70;;;3.08;;
65717;SDS011;52445;52.466;-1.016;2022-09-09T00:57:36;9.32;;;3.10;;
65717;SDS011;52445;52.466;-1.016;2022-09-09T01:00:16;10.18;;;2.88;;
65717;SDS011;52445;52.466;-1.016;2022-09-09T01:08:18;10.38;;;3.40;;
65717;SDS011;52445;52.466;-1.016;2022-09-09T01:13:29;10.15;;;3.63;;
65717;SDS011;52445;52.466;-1.016;2022-09-09T01:16:00;10.93;;;3.50;;
65717;SDS011;52445;52.466;-1.016;2022-09-09T01:18:31;63.83;;;4.00;;
65717;SDS011;52445;52.466;-1.016;2022-09-09T01:24:08;8.82;;;3.50;;
65717;SDS011;52445;52.466;-1.016;2022-09-09T01:26:48;10.05;;;3.47;;
65717;SDS011;52445;52.466;-1.016;2022-09-09T01:29:18;15.63;;;3.13;;
65717;SDS011;52445;52.466;-1.016;2022-09-09T01:31:55;19.73;;;3.53;;
65717;SDS011;52445;52.466;-1.016;2022-09-09T01:34:27;9.30;;;3.50;;
65717;SDS011;52445;52.466;-1.016;2022-09-09T01:39:34;11.70;;;3.03;;
65717;SDS011;52445;52.466;-1.016;2022-09-09T01:42:02;30.88;;;4.13;;
65717;SDS011;52445;52.466;-1.016;2022-09-09T01:44:31;28.90;;;3.63;;
65717;SDS011;52445;52.466;-1.016;2022-09-09T01:47:00;9.93;;;3.42;;
65717;SDS011;52445;52.466;-1.016;2022-09-09T01:49:27;12.18;;;3.38;;
65717;SDS011;52445;52.466;-1.016;2022-09-09T01:51:54;10.35;;;3.33;;
65717;SDS011;52445;52.466;-1.016;2022-09-09T01:54:22;9.13;;;3.47;;
65717;SDS011;52445;52.466;-1.016;2022-09-09T01:57:04;18.25;;;3.78;;
65717;SDS011;52445;52.466;-1.016;2022-09-09T02:00:00;15.20;;;3.70;;
65717;SDS011;52445;52.466;-1.016;2022-09-09T02:05:39;31.13;;;3.22;;
65717;SDS011;52445;52.466;-1.016;2022-09-09T02:08:11;17.48;;;3.38;;
65717;SDS011;52445;52.466;-1.016;2022-09-09T02:10:46;11.23;;;3.55;;
65717;SDS011;52445;52.466;-1.016;2022-09-09T02:13:21;8.60;;;3.17;;
65717;SDS011;52445;52.466;-1.016;2022-09-09T02:18:27;7.20;;;4.03;;
65717;SDS011;52445;52.466;-1.016;2022-09-09T02:20:59;5.80;;;3.53;;
65717;SDS011;52445;52.466;-1.016;2022-09-09T02:23:26;7.20;;;3.28;;
65717;SDS011;52445;52.466;-1.016;2022-09-09T02:25:54;8.10;;;3.85;;
65717;SDS011;52445;52.466;-1.016;2022-09-09T02:28:24;13.25;;;4.07;;
65717;SDS011;52445;52.466;-1.016;2022-09-09T02:30:54;11.05;;;4.60;;
65717;SDS011;52445;52.466;-1.016;2022-09-09T02:33:26;8.60;;;4.07;;
65717;SDS011;52445;52.466;-1.016;2022-09-09T02:35:56;10.50;;;4.07;;
65717;SDS011;52445;52.466;-1.016;2022-09-09T02:38:30;10.90;;;4.03;;
65717;SDS011;52445;52.466;-1.016;2022-09-09T02:41:01;9.82;;;4.30;;
65717;SDS011;52445;52.466;-1.016;2022-09-09T02:43:35;7.72;;;4.28;;
65717;SDS011;52445;52.466;-1.016;2022-09-09T02:46:08;8.38;;;3.67;;
65717;SDS011;52445;52.466;-1.016;2022-09-09T02:51:44;16.25;;;5.90;;
65717;SDS011;52445;52.466;-1.016;2022-09-09T02:54:24;24.42;;;4.57;;
65717;SDS011;52445;52.466;-1.016;2022-09-09T02:57:03;21.00;;;4.25;;
65717;SDS011;52445;52.466;-1.016;2022-09-09T02:59:42;16.73;;;4.50;;
65717;SDS011;52445;52.466;-1.016;2022-09-09T03:02:10;12.40;;;3.95;;
65717;SDS011;52445;52.466;-1.016;2022-09-09T03:04:37;26.08;;;4.15;;
65717;SDS011;52445;52.466;-1.016;2022-09-09T03:07:05;31.10;;;4.38;;
65717;SDS011;52445;52.466;-1.016;2022-09-09T03:09:32;22.55;;;4.45;;
65717;SDS011;52445;52.466;-1.016;2022-09-09T03:11:59;46.08;;;4.45;;
65717;SDS011;52445;52.466;-1.016;2022-09-09T03:14:26;24.25;;;4.28;;
65717;SDS011;52445;52.466;-1.016;2022-09-09T03:16:53;18.38;;;4.93;;
65717;SDS011;52445;52.466;-1.016;2022-09-09T03:19:20;12.30;;;4.20;;
65717;SDS011;52445;52.466;-1.016;2022-09-09T03:21:47;18.90;;;5.05;;
65717;SDS011;52445;52.466;-1.016;2022-09-09T03:24:14;14.80;;;4.82;;
65717;SDS011;52445;52.466;-1.016;2022-09-09T03:26:41;18.98;;;4.90;;
65717;SDS011;52445;52.466;-1.016;2022-09-09T03:29:11;20.73;;;5.82;;
65717;SDS011;52445;52.466;-1.016;2022-09-09T03:31:39;17.42;;;4.53;;
65717;SDS011;52445;52.466;-1.016;2022-09-09T03:34:06;13.43;;;4.63;;
65717;SDS011;52445;52.466;-1.016;2022-09-09T03:36:33;16.25;;;5.32;;
65717;SDS011;52445;52.466;-1.016;2022-09-09T03:38:59;18.45;;;5.43;;
65717;SDS011;52445;52.466;-1.016;2022-09-09T03:41:27;18.58;;;4.93;;
65717;SDS011;52445;52.466;-1.016;2022-09-09T03:43:54;22.30;;;6.20;;
65717;SDS011;52445;52.466;-1.016;2022-09-09T03:46:21;22.20;;;6.38;;
65717;SDS011;52445;52.466;-1.016;2022-09-09T03:48:49;18.25;;;5.80;;
65717;SDS011;52445;52.466;-1.016;2022-09-09T03:51:16;20.73;;;6.00;;
65717;SDS011;52445;52.466;-1.016;2022-09-09T03:53:43;26.90;;;7.20;;
65717;SDS011;52445;52.466;-1.016;2022-09-09T03:56:09;17.40;;;5.65;;
65717;SDS011;52445;52.466;-1.016;2022-09-09T03:58:36;24.02;;;5.68;;
65717;SDS011;52445;52.466;-1.016;2022-09-09T04:01:04;20.17;;;5.82;;
65717;SDS011;52445;52.466;-1.016;2022-09-09T04:03:35;17.42;;;8.02;;
65717;SDS011;52445;52.466;-1.016;2022-09-09T04:06:02;18.65;;;5.38;;
65717;SDS011;52445;52.466;-1.016;2022-09-09T04:08:29;23.08;;;6.38;;
65717;SDS011;52445;52.466;-1.016;2022-09-09T04:10:58;21.10;;;6.88;;
65717;SDS011;52445;52.466;-1.016;2022-09-09T04:13:24;23.65;;;6.05;;
65717;SDS011;52445;52.466;-1.016;2022-09-09T04:15:53;20.77;;;6.18;;
65717;SDS011;52445;52.466;-1.016;2022-09-09T04:18:21;19.60;;;6.95;;
65717;SDS011;52445;52.466;-1.016;2022-09-09T04:20:48;21.65;;;6.50;;
65717;SDS011;52445;52.466;-1.016;2022-09-09T04:23:16;21.15;;;6.45;;
65717;SDS011;52445;52.466;-1.016;2022-09-09T04:25:49;20.00;;;6.50;;
65717;SDS011;52445;52.466;-1.016;2022-09-09T04:28:18;20.40;;;7.20;;
65717;SDS011;52445;52.466;-1.016;2022-09-09T04:30:46;25.05;;;6.60;;
65717;SDS011;52445;52.466;-1.016;2022-09-09T04:33:13;25.13;;;6.75;;
65717;SDS011;52445;52.466;-1.016;2022-09-09T04:35:48;21.73;;;6.55;;
65717;SDS011;52445;52.466;-1.016;2022-09-09T04:38:16;21.95;;;6.50;;
65717;SDS011;52445;52.466;-1.016;2022-09-09T04:40:44;17.38;;;6.65;;
65717;SDS011;52445;52.466;-1.016;2022-09-09T04:43:13;16.80;;;6.57;;
65717;SDS011;52445;52.466;-1.016;2022-09-09T04:45:41;20.13;;;6.45;;
65717;SDS011;52445;52.466;-1.016;2022-09-09T04:48:09;22.42;;;6.28;;
65717;SDS011;52445;52.466;-1.016;2022-09-09T04:50:35;21.90;;;6.72;;
65717;SDS011;52445;52.466;-1.016;2022-09-09T04:53:02;25.00;;;6.95;;
65717;SDS011;52445;52.466;-1.016;2022-09-09T04:55:31;21.25;;;6.72;;
65717;SDS011;52445;52.466;-1.016;2022-09-09T04:58:06;19.92;;;6.75;;
65717;SDS011;52445;52.466;-1.016;2022-09-09T05:00:34;25.00;;;7.47;;
65717;SDS011;52445;52.466;-1.016;2022-09-09T05:03:02;22.88;;;6.75;;
65717;SDS011;52445;52.466;-1.016;2022-09-09T05:05:30;22.38;;;5.60;;
65717;SDS011;52445;52.466;-1.016;2022-09-09T05:08:01;28.52;;;7.95;;
65717;SDS011;52445;52.466;-1.016;2022-09-09T05:10:29;21.58;;;7.15;;
65717;SDS011;52445;52.466;-1.016;2022-09-09T05:12:55;29.15;;;8.07;;
65717;SDS011;52445;52.466;-1.016;2022-09-09T05:15:22;27.13;;;8.55;;
65717;SDS011;52445;52.466;-1.016;2022-09-09T05:17:49;23.65;;;7.97;;
65717;SDS011;52445;52.466;-1.016;2022-09-09T05:20:17;24.20;;;7.72;;
65717;SDS011;52445;52.466;-1.016;2022-09-09T05:22:44;28.27;;;8.88;;
65717;SDS011;52445;52.466;-1.016;2022-09-09T05:25:11;31.92;;;9.85;;
65717;SDS011;52445;52.466;-1.016;2022-09-09T05:27:37;33.13;;;9.15;;
65717;SDS011;52445;52.466;-1.016;2022-09-09T05:30:04;32.30;;;9.30;;
65717;SDS011;52445;52.466;-1.016;2022-09-09T05:32:31;36.90;;;10.73;;
65717;SDS011;52445;52.466;-1.016;2022-09-09T05:35:00;38.90;;;10.13;;
65717;SDS011;52445;52.466;-1.016;2022-09-09T05:37:27;35.42;;;11.10;;
65717;SDS011;52445;52.466;-1.016;2022-09-09T05:39:55;33.75;;;10.43;;
65717;SDS011;52445;52.466;-1.016;2022-09-09T05:42:22;35.15;;;10.52;;
65717;SDS011;52445;52.466;-1.016;2022-09-09T05:44:49;39.35;;;10.35;;
65717;SDS011;52445;52.466;-1.016;2022-09-09T05:47:17;33.42;;;9.90;;
65717;SDS011;52445;52.466;-1.016;2022-09-09T05:49:43;36.72;;;10.48;;
65717;SDS011;52445;52.466;-1.016;2022-09-09T05:52:10;37.97;;;11.52;;
65717;SDS011;52445;52.466;-1.016;2022-09-09T05:54:36;31.98;;;10.07;;
65717;SDS011;52445;52.466;-1.016;2022-09-09T05:57:04;37.47;;;11.25;;
65717;SDS011;52445;52.466;-1.016;2022-09-09T05:59:30;37.28;;;10.32;;
65717;SDS011;52445;52.466;-1.016;2022-09-09T06:01:58;41.17;;;11.57;;
65717;SDS011;52445;52.466;-1.016;2022-09-09T06:04:25;39.40;;;11.32;;
65717;SDS011;52445;52.466;-1.016;2022-09-09T06:06:52;39.65;;;10.77;;
65717;SDS011;52445;52.466;-1.016;2022-09-09T06:09:18;36.92;;;10.38;;
65717;SDS011;52445;52.466;-1.016;2022-09-09T06:11:45;38.88;;;11.70;;
65717;SDS011;52445;52.466;-1.016;2022-09-09T06:14:12;42.78;;;11.77;;
65717;SDS011;52445;52.466;-1.016;2022-09-09T06:16:38;39.47;;;11.05;;
65717;SDS011;52445;52.466;-1.016;2022-09-09T06:19:05;40.75;;;12.10;;
65717;SDS011;52445;52.466;-1.016;2022-09-09T06:21:33;39.70;;;12.40;;
65717;SDS011;52445;52.466;-1.016;2022-09-09T06:24:03;45.38;;;12.40;;
65717;SDS011;52445;52.466;-1.016;2022-09-09T06:26:31;39.13;;;11.38;;
65717;SDS011;52445;52.466;-1.016;2022-09-09T06:29:01;42.28;;;11.63;;
65717;SDS011;52445;52.466;-1.016;2022-09-09T06:31:31;48.55;;;11.70;;
65717;SDS011;52445;52.466;-1.016;2022-09-09T06:34:00;45.80;;;11.90;;
65717;SDS011;52445;52.466;-1.016;2022-09-09T06:36:29;45.75;;;12.57;;
65717;SDS011;52445;52.466;-1.016;2022-09-09T06:38:57;38.55;;;10.70;;
65717;SDS011;52445;52.466;-1.016;2022-09-09T06:41:25;46.72;;;12.25;;
65717;SDS011;52445;52.466;-1.016;2022-09-09T06:43:53;42.35;;;12.00;;
65717;SDS011;52445;52.466;-1.016;2022-09-09T06:46:22;45.85;;;11.73;;
65717;SDS011;52445;52.466;-1.016;2022-09-09T06:48:50;53.15;;;11.75;;
65717;SDS011;52445;52.466;-1.016;2022-09-09T06:51:19;49.70;;;11.65;;
65717;SDS011;52445;52.466;-1.016;2022-09-09T06:56:18;48.90;;;11.32;;
65717;SDS011;52445;52.466;-1.016;2022-09-09T06:58:54;47.42;;;11.52;;
65717;SDS011;52445;52.466;-1.016;2022-09-09T07:01:24;48.33;;;11.45;;
65717;SDS011;52445;52.466;-1.016;2022-09-09T07:03:53;42.42;;;10.95;;
65717;SDS011;52445;52.466;-1.016;2022-09-09T07:06:22;42.40;;;11.60;;
65717;SDS011;52445;52.466;-1.016;2022-09-09T07:08:51;45.13;;;10.15;;
65717;SDS011;52445;52.466;-1.016;2022-09-09T07:11:23;48.38;;;11.13;;
65717;SDS011;52445;52.466;-1.016;2022-09-09T07:13:52;41.45;;;10.77;;
65717;SDS011;52445;52.466;-1.016;2022-09-09T07:16:19;40.42;;;11.05;;
65717;SDS011;52445;52.466;-1.016;2022-09-09T07:21:16;40.13;;;10.75;;
65717;SDS011;52445;52.466;-1.016;2022-09-09T07:23:43;43.38;;;11.77;;
65717;SDS011;52445;52.466;-1.016;2022-09-09T07:26:11;48.72;;;13.07;;
65717;SDS011;52445;52.466;-1.016;2022-09-09T07:28:40;48.38;;;12.35;;
65717;SDS011;52445;52.466;-1.016;2022-09-09T07:31:08;52.80;;;14.57;;
65717;SDS011;52445;52.466;-1.016;2022-09-09T07:33:43;46.38;;;12.70;;
65717;SDS011;52445;52.466;-1.016;2022-09-09T07:36:15;47.22;;;13.10;;
65717;SDS011;52445;52.466;-1.016;2022-09-09T07:38:44;39.90;;;11.55;;
65717;SDS011;52445;52.466;-1.016;2022-09-09T07:41:15;33.10;;;10.95;;
65717;SDS011;52445;52.466;-1.016;2022-09-09T07:43:44;31.55;;;9.60;;
65717;SDS011;52445;52.466;-1.016;2022-09-09T07:46:12;26.80;;;8.80;;
65717;SDS011;52445;52.466;-1.016;2022-09-09T07:48:49;26.38;;;8.57;;
65717;SDS011;52445;52.466;-1.016;2022-09-09T07:51:20;22.08;;;8.55;;
65717;SDS011;52445;52.466;-1.016;2022-09-09T07:53:52;27.65;;;8.48;;
65717;SDS011;52445;52.466;-1.016;2022-09-09T07:56:20;22.15;;;8.35;;
65717;SDS011;52445;52.466;-1.016;2022-09-09T07:58:50;28.45;;;9.35;;
65717;SDS011;52445;52.466;-1.016;2022-09-09T08:01:19;23.48;;;8.43;;
65717;SDS011;52445;52.466;-1.016;2022-09-09T08:04:00;26.85;;;10.07;;
65717;SDS011;52445;52.466;-1.016;2022-09-09T08:06:30;28.63;;;9.90;;
65717;SDS011;52445;52.466;-1.016;2022-09-09T08:08:59;32.92;;;10.73;;
65717;SDS011;52445;52.466;-1.016;2022-09-09T08:11:27;25.35;;;9.43;;
65717;SDS011;52445;52.466;-1.016;2022-09-09T08:13:58;24.65;;;10.27;;
65717;SDS011;52445;52.466;-1.016;2022-09-09T08:16:29;21.63;;;8.60;;
65717;SDS011;52445;52.466;-1.016;2022-09-09T08:18:58;23.48;;;10.20;;
65717;SDS011;52445;52.466;-1.016;2022-09-09T08:21:27;19.70;;;8.23;;
65717;SDS011;52445;52.466;-1.016;2022-09-09T08:23:55;20.30;;;8.20;;
65717;SDS011;52445;52.466;-1.016;2022-09-09T08:28:59;20.25;;;7.25;;
65717;SDS011;52445;52.466;-1.016;2022-09-09T08:31:28;19.02;;;6.93;;
65717;SDS011;52445;52.466;-1.016;2022-09-09T08:33:57;17.98;;;5.93;;
65717;SDS011;52445;52.466;-1.016;2022-09-09T08:36:26;18.40;;;6.20;;
65717;SDS011;52445;52.466;-1.016;2022-09-09T08:44:02;19.88;;;6.65;;
65717;SDS011;52445;52.466;-1.016;2022-09-09T08:55:16;23.52;;;7.60;;
65717;SDS011;52445;52.466;-1.016;2022-09-09T08:57:57;23.88;;;7.10;;
65717;SDS011;52445;52.466;-1.016;2022-09-09T09:00:30;20.13;;;6.80;;
65717;SDS011;52445;52.466;-1.016;2022-09-09T09:03:09;17.63;;;6.55;;
65717;SDS011;52445;52.466;-1.016;2022-09-09T09:08:31;25.88;;;10.65;;
65717;SDS011;52445;52.466;-1.016;2022-09-09T09:11:07;21.45;;;9.77;;
65717;SDS011;52445;52.466;-1.016;2022-09-09T09:13:39;20.73;;;9.25;;
65717;SDS011;52445;52.466;-1.016;2022-09-09T09:16:13;25.33;;;9.48;;
65717;SDS011;52445;52.466;-1.016;2022-09-09T09:18:48;25.75;;;10.00;;
65717;SDS011;52445;52.466;-1.016;2022-09-09T09:21:20;20.50;;;9.35;;
65717;SDS011;52445;52.466;-1.016;2022-09-09T09:23:56;22.10;;;8.13;;
65717;SDS011;52445;52.466;-1.016;2022-09-09T09:26:25;18.00;;;8.18;;
65717;SDS011;52445;52.466;-1.016;2022-09-09T09:28:59;16.25;;;7.47;;
65717;SDS011;52445;52.466;-1.016;2022-09-09T09:31:27;21.20;;;7.40;;
65717;SDS011;52445;52.466;-1.016;2022-09-09T09:33:54;16.40;;;7.55;;
65717;SDS011;52445;52.466;-1.016;2022-09-09T09:36:24;16.92;;;9.02;;
65717;SDS011;52445;52.466;-1.016;2022-09-09T09:39:00;15.63;;;6.47;;
65717;SDS011;52445;52.466;-1.016;2022-09-09T09:41:49;14.30;;;8.13;;
65717;SDS011;52445;52.466;-1.016;2022-09-09T09:44:26;14.82;;;7.03;;
65717;SDS011;52445;52.466;-1.016;2022-09-09T09:47:05;17.38;;;8.38;;
65717;SDS011;52445;52.466;-1.016;2022-09-09T09:49:33;14.77;;;8.30;;
65717;SDS011;52445;52.466;-1.016;2022-09-09T09:52:01;17.90;;;8.82;;
65717;SDS011;52445;52.466;-1.016;2022-09-09T09:54:31;16.42;;;7.68;;
65717;SDS011;52445;52.466;-1.016;2022-09-09T09:57:10;18.30;;;8.25;;
65717;SDS011;52445;52.466;-1.016;2022-09-09T09:59:38;18.45;;;8.88;;
65717;SDS011;52445;52.466;-1.016;2022-09-09T10:02:16;19.00;;;9.80;;
65717;SDS011;52445;52.466;-1.016;2022-09-09T10:05:00;22.48;;;8.27;;
65717;SDS011;52445;52.466;-1.016;2022-09-09T10:07:28;22.15;;;8.65;;
65717;SDS011;52445;52.466;-1.016;2022-09-09T10:09:57;21.45;;;8.82;;
65717;SDS011;52445;52.466;-1.016;2022-09-09T10:17:40;16.10;;;7.07;;
65717;SDS011;52445;52.466;-1.016;2022-09-09T10:23:02;19.75;;;8.18;;
65717;SDS011;52445;52.466;-1.016;2022-09-09T10:25:49;18.05;;;8.45;;
65717;SDS011;52445;52.466;-1.016;2022-09-09T10:28:58;19.27;;;9.45;;
65717;SDS011;52445;52.466;-1.016;2022-09-09T10:31:43;19.10;;;6.93;;
65717;SDS011;52445;52.466;-1.016;2022-09-09T10:40:16;14.05;;;6.57;;
65717;SDS011;52445;52.466;-1.016;2022-09-09T10:42:53;16.48;;;7.15;;
65717;SDS011;52445;52.466;-1.016;2022-09-09T10:45:30;15.25;;;7.32;;
65717;SDS011;52445;52.466;-1.016;2022-09-09T10:55:57;12.07;;;5.97;;
65717;SDS011;52445;52.466;-1.016;2022-09-09T10:58:35;10.73;;;5.25;;
65717;SDS011;52445;52.466;-1.016;2022-09-09T11:01:10;8.45;;;4.38;;
65717;SDS011;52445;52.466;-1.016;2022-09-09T11:03:42;9.98;;;5.47;;
65717;SDS011;52445;52.466;-1.016;2022-09-09T11:06:15;7.72;;;3.42;;
65717;SDS011;52445;52.466;-1.016;2022-09-09T11:08:45;11.55;;;4.50;;
65717;SDS011;52445;52.466;-1.016;2022-09-09T11:11:21;10.52;;;4.95;;
65717;SDS011;52445;52.466;-1.016;2022-09-09T11:19:24;12.75;;;4.88;;
65717;SDS011;52445;52.466;-1.016;2022-09-09T11:21:58;13.45;;;5.50;;
65717;SDS011;52445;52.466;-1.016;2022-09-09T11:24:28;15.65;;;7.55;;
65717;SDS011;52445;52.466;-1.016;2022-09-09T11:27:02;12.02;;;5.18;;
65717;SDS011;52445;52.466;-1.016;2022-09-09T11:29:42;13.10;;;6.57;;
65717;SDS011;52445;52.466;-1.016;2022-09-09T11:37:52;14.32;;;6.10;;
65717;SDS011;52445;52.466;-1.016;2022-09-09T11:40:32;13.05;;;5.45;;
65717;SDS011;52445;52.466;-1.016;2022-09-09T11:43:01;15.52;;;6.75;;
65717;SDS011;52445;52.466;-1.016;2022-09-09T11:45:32;13.05;;;6.18;;
65717;SDS011;52445;52.466;-1.016;2022-09-09T11:48:02;11.75;;;7.65;;
65717;SDS011;52445;52.466;-1.016;2022-09-09T11:50:35;12.23;;;5.30;;
65717;SDS011;52445;52.466;-1.016;2022-09-09T11:55:41;10.15;;;5.07;;
65717;SDS011;52445;52.466;-1.016;2022-09-09T12:00:47;10.00;;;5.35;;
65717;SDS011;52445;52.466;-1.016;2022-09-09T12:06:11;10.30;;;5.30;;
65717;SDS011;52445;52.466;-1.016;2022-09-09T12:09:08;12.32;;;6.13;;
65717;SDS011;52445;52.466;-1.016;2022-09-09T12:11:43;9.93;;;4.72;;
65717;SDS011;52445;52.466;-1.016;2022-09-09T12:27:59;11.63;;;5.85;;
65717;SDS011;52445;52.466;-1.016;2022-09-09T12:30:36;11.63;;;5.90;;
65717;SDS011;52445;52.466;-1.016;2022-09-09T12:33:18;11.30;;;6.68;;
65717;SDS011;52445;52.466;-1.016;2022-09-09T12:35:47;10.38;;;5.97;;
65717;SDS011;52445;52.466;-1.016;2022-09-09T12:38:25;11.27;;;5.80;;
65717;SDS011;52445;52.466;-1.016;2022-09-09T12:40:58;13.45;;;5.93;;
65717;SDS011;52445;52.466;-1.016;2022-09-09T12:43:25;7.75;;;5.32;;
65717;SDS011;52445;52.466;-1.016;2022-09-09T12:45:57;8.02;;;3.97;;
65717;SDS011;52445;52.466;-1.016;2022-09-09T12:48:33;7.22;;;4.30;;
65717;SDS011;52445;52.466;-1.016;2022-09-09T12:51:03;7.57;;;4.55;;
65717;SDS011;52445;52.466;-1.016;2022-09-09T12:53:34;7.03;;;2.95;;
65717;SDS011;52445;52.466;-1.016;2022-09-09T12:58:39;8.23;;;4.88;;
65717;SDS011;52445;52.466;-1.016;2022-09-09T13:01:30;9.07;;;5.30;;
65717;SDS011;52445;52.466;-1.016;2022-09-09T13:03:59;7.55;;;4.93;;
65717;SDS011;52445;52.466;-1.016;2022-09-09T13:06:27;9.40;;;5.68;;
65717;SDS011;52445;52.466;-1.016;2022-09-09T13:08:56;11.43;;;5.63;;
65717;SDS011;52445;52.466;-1.016;2022-09-09T13:11:26;10.27;;;5.75;;
65717;SDS011;52445;52.466;-1.016;2022-09-09T13:14:05;10.85;;;6.50;;
65717;SDS011;52445;52.466;-1.016;2022-09-09T13:16:33;8.63;;;5.75;;
65717;SDS011;52445;52.466;-1.016;2022-09-09T13:21:43;9.98;;;3.42;;
65717;SDS011;52445;52.466;-1.016;2022-09-09T13:26:59;9.82;;;3.35;;
65717;SDS011;52445;52.466;-1.016;2022-09-09T13:29:28;4.15;;;2.50;;
65717;SDS011;52445;52.466;-1.016;2022-09-09T13:32:04;1.50;;;0.90;;
65717;SDS011;52445;52.466;-1.016;2022-09-09T13:34:34;1.50;;;0.93;;
65717;SDS011;52445;52.466;-1.016;2022-09-09T13:37:03;1.10;;;0.60;;
65717;SDS011;52445;52.466;-1.016;2022-09-09T13:39:33;3.60;;;1.67;;
65717;SDS011;52445;52.466;-1.016;2022-09-09T13:42:02;2.22;;;0.73;;
65717;SDS011;52445;52.466;-1.016;2022-09-09T13:44:30;2.17;;;1.75;;
65717;SDS011;52445;52.466;-1.016;2022-09-09T13:47:01;2.50;;;1.77;;
65717;SDS011;52445;52.466;-1.016;2022-09-09T13:49:35;2.13;;;0.95;;
65717;SDS011;52445;52.466;-1.016;2022-09-09T13:52:04;1.52;;;1.13;;
65717;SDS011;52445;52.466;-1.016;2022-09-09T13:54:49;2.83;;;1.00;;
65717;SDS011;52445;52.466;-1.016;2022-09-09T13:57:19;1.95;;;1.08;;
65717;SDS011;52445;52.466;-1.016;2022-09-09T13:59:48;3.85;;;1.50;;
65717;SDS011;52445;52.466;-1.016;2022-09-09T14:02:33;3.47;;;1.70;;
65717;SDS011;52445;52.466;-1.016;2022-09-09T14:05:00;3.20;;;2.65;;
65717;SDS011;52445;52.466;-1.016;2022-09-09T14:07:27;4.05;;;2.30;;
65717;SDS011;52445;52.466;-1.016;2022-09-09T14:09:53;4.03;;;2.10;;
65717;SDS011;52445;52.466;-1.016;2022-09-09T14:12:20;4.88;;;3.05;;
65717;SDS011;52445;52.466;-1.016;2022-09-09T14:14:46;7.30;;;2.78;;
65717;SDS011;52445;52.466;-1.016;2022-09-09T14:17:13;5.78;;;3.13;;
65717;SDS011;52445;52.466;-1.016;2022-09-09T14:19:40;4.25;;;2.33;;
65717;SDS011;52445;52.466;-1.016;2022-09-09T14:22:08;5.97;;;3.05;;
65717;SDS011;52445;52.466;-1.016;2022-09-09T14:24:35;7.75;;;3.55;;
65717;SDS011;52445;52.466;-1.016;2022-09-09T14:27:01;6.85;;;3.35;;
65717;SDS011;52445;52.466;-1.016;2022-09-09T14:29:28;6.22;;;3.75;;
65717;SDS011;52445;52.466;-1.016;2022-09-09T14:31:54;7.03;;;3.60;;
65717;SDS011;52445;52.466;-1.016;2022-09-09T14:34:21;6.53;;;3.25;;
65717;SDS011;52445;52.466;-1.016;2022-09-09T14:36:47;5.65;;;3.22;;
65717;SDS011;52445;52.466;-1.016;2022-09-09T14:39:14;5.32;;;2.88;;
65717;SDS011;52445;52.466;-1.016;2022-09-09T14:41:41;6.78;;;3.20;;
65717;SDS011;52445;52.466;-1.016;2022-09-09T14:44:07;7.68;;;3.42;;
65717;SDS011;52445;52.466;-1.016;2022-09-09T14:46:34;6.57;;;3.25;;
65717;SDS011;52445;52.466;-1.016;2022-09-09T14:49:01;7.95;;;4.40;;
65717;SDS011;52445;52.466;-1.016;2022-09-09T14:51:28;6.13;;;2.90;;
65717;SDS011;52445;52.466;-1.016;2022-09-09T14:53:56;9.20;;;3.40;;
65717;SDS011;52445;52.466;-1.016;2022-09-09T14:56:27;7.30;;;2.95;;
65717;SDS011;52445;52.466;-1.016;2022-09-09T14:58:56;7.25;;;3.47;;
65717;SDS011;52445;52.466;-1.016;2022-09-09T15:01:25;6.13;;;2.88;;
65717;SDS011;52445;52.466;-1.016;2022-09-09T15:03:54;9.15;;;3.92;;
65717;SDS011;52445;52.466;-1.016;2022-09-09T15:06:25;10.30;;;4.30;;
65717;SDS011;52445;52.466;-1.016;2022-09-09T15:08:53;6.38;;;3.20;;
65717;SDS011;52445;52.466;-1.016;2022-09-09T15:11:20;5.97;;;3.45;;
65717;SDS011;52445;52.466;-1.016;2022-09-09T15:13:50;8.18;;;3.22;;
65717;SDS011;52445;52.466;-1.016;2022-09-09T15:16:19;6.55;;;3.53;;
65717;SDS011;52445;52.466;-1.016;2022-09-09T15:18:50;9.18;;;3.55;;
65717;SDS011;52445;52.466;-1.016;2022-09-09T15:21:20;8.23;;;3.33;;
65717;SDS011;52445;52.466;-1.016;2022-09-09T15:26:15;7.40;;;2.97;;
65717;SDS011;52445;52.466;-1.016;2022-09-09T15:28:43;8.48;;;3.67;;
65717;SDS011;52445;52.466;-1.016;2022-09-09T15:31:12;7.57;;;3.83;;
65717;SDS011;52445;52.466;-1.016;2022-09-09T15:33:41;7.05;;;3.30;;
65717;SDS011;52445;52.466;-1.016;2022-09-09T15:36:14;8.52;;;3.80;;
65717;SDS011;52445;52.466;-1.016;2022-09-09T15:38:50;6.40;;;3.45;;
65717;SDS011;52445;52.466;-1.016;2022-09-09T15:41:18;8.82;;;3.22;;
65717;SDS011;52445;52.466;-1.016;2022-09-09T15:43:48;7.03;;;3.08;;
65717;SDS011;52445;52.466;-1.016;2022-09-09T15:48:55;2.25;;;0.70;;
65717;SDS011;52445;52.466;-1.016;2022-09-09T15:51:24;0.98;;;0.60;;
65717;SDS011;52445;52.466;-1.016;2022-09-09T15:54:11;0.82;;;0.38;;
65717;SDS011;52445;52.466;-1.016;2022-09-09T15:56:39;1.13;;;0.50;;
65717;SDS011;52445;52.466;-1.016;2022-09-09T15:59:07;2.13;;;0.70;;
65717;SDS011;52445;52.466;-1.016;2022-09-09T16:01:34;3.13;;;0.50;;
65717;SDS011;52445;52.466;-1.016;2022-09-09T16:04:01;1.52;;;0.50;;
65717;SDS011;52445;52.466;-1.016;2022-09-09T16:06:28;0.90;;;0.77;;
65717;SDS011;52445;52.466;-1.016;2022-09-09T16:08:56;1.25;;;0.40;;
65717;SDS011;52445;52.466;-1.016;2022-09-09T16:11:25;1.40;;;0.82;;
65717;SDS011;52445;52.466;-1.016;2022-09-09T16:13:55;0.82;;;0.63;;
65717;SDS011;52445;52.466;-1.016;2022-09-09T16:16:22;1.20;;;0.77;;
65717;SDS011;52445;52.466;-1.016;2022-09-09T16:18:54;1.75;;;1.38;;
65717;SDS011;52445;52.466;-1.016;2022-09-09T16:21:23;1.40;;;0.60;;
65717;SDS011;52445;52.466;-1.016;2022-09-09T16:23:52;1.50;;;1.02;;
65717;SDS011;52445;52.466;-1.016;2022-09-09T16:26:20;1.70;;;0.60;;
65717;SDS011;52445;52.466;-1.016;2022-09-09T16:28:48;1.13;;;0.88;;
65717;SDS011;52445;52.466;-1.016;2022-09-09T16:31:16;1.80;;;0.93;;
65717;SDS011;52445;52.466;-1.016;2022-09-09T16:33:45;2.72;;;0.52;;
65717;SDS011;52445;52.466;-1.016;2022-09-09T16:36:14;1.88;;;0.82;;
65717;SDS011;52445;52.466;-1.016;2022-09-09T16:38:42;3.60;;;0.88;;
65717;SDS011;52445;52.466;-1.016;2022-09-09T16:41:09;2.05;;;0.70;;
65717;SDS011;52445;52.466;-1.016;2022-09-09T16:43:37;4.88;;;0.65;;
65717;SDS011;52445;52.466;-1.016;2022-09-09T16:46:14;2.88;;;0.60;;
65717;SDS011;52445;52.466;-1.016;2022-09-09T16:48:43;3.10;;;0.50;;
65717;SDS011;52445;52.466;-1.016;2022-09-09T16:51:19;1.60;;;0.85;;
65717;SDS011;52445;52.466;-1.016;2022-09-09T16:53:49;2.05;;;0.65;;
65717;SDS011;52445;52.466;-1.016;2022-09-09T16:56:19;0.70;;;0.35;;
65717;SDS011;52445;52.466;-1.016;2022-09-09T16:58:49;1.65;;;0.38;;